sensor_id;sensor_type;location;lat;lon;timestamp;temperature;humidity
79020;DHT22;68422;44.714;37.756;2023-03-24T00:00:23;26.14;40.95
79020;DHT22;68422;44.714;37.756;2023-03-24T00:01:24;26.14;40.98
79020;DHT22;68422;44.714;37.756;2023-03-24T00:02:25;26.11;41.02
79020;DHT22;68422;44.714;37.756;2023-03-24T00:03:29;26.11;40.96
79020;DHT22;68422;44.714;37.756;2023-03-24T00:04:31;26.09;41.00
79020;DHT22;68422;44.714;37.756;2023-03-24T00:05:33;26.12;40.98
79020;DHT22;68422;44.714;37.756;2023-03-24T00:06:34;26.15;40.87
79020;DHT22;68422;44.714;37.756;2023-03-24T00:07:36;26.15;40.91
79020;DHT22;68422;44.714;37.756;2023-03-24T00:08:41;26.15;40.92
79020;DHT22;68422;44.714;37.756;2023-03-24T00:09:44;26.14;40.90
79020;DHT22;68422;44.714;37.756;2023-03-24T00:10:45;26.15;40.93
79020;DHT22;68422;44.714;37.756;2023-03-24T00:11:48;26.19;40.80
79020;DHT22;68422;44.714;37.756;2023-03-24T00:12:50;26.22;40.74
79020;DHT22;68422;44.714;37.756;2023-03-24T00:13:51;26.22;40.78
79020;DHT22;68422;44.714;37.756;2023-03-24T00:14:52;26.18;40.83
79020;DHT22;68422;44.714;37.756;2023-03-24T00:15:54;26.19;40.83
79020;DHT22;68422;44.714;37.756;2023-03-24T00:16:55;26.15;40.79
79020;DHT22;68422;44.714;37.756;2023-03-24T00:17:59;26.15;40.86
79020;DHT22;68422;44.714;37.756;2023-03-24T00:19:01;26.14;40.92
79020;DHT22;68422;44.714;37.756;2023-03-24T00:20:08;26.14;40.89
79020;DHT22;68422;44.714;37.756;2023-03-24T00:21:14;26.15;40.89
79020;DHT22;68422;44.714;37.756;2023-03-24T00:22:15;26.16;40.91
79020;DHT22;68422;44.714;37.756;2023-03-24T00:23:17;26.15;40.91
79020;DHT22;68422;44.714;37.756;2023-03-24T00:24:18;26.14;40.90
79020;DHT22;68422;44.714;37.756;2023-03-24T00:25:21;26.16;40.86
79020;DHT22;68422;44.714;37.756;2023-03-24T00:26:24;26.15;40.87
79020;DHT22;68422;44.714;37.756;2023-03-24T00:27:26;26.19;40.87
79020;DHT22;68422;44.714;37.756;2023-03-24T00:28:33;26.18;40.87
79020;DHT22;68422;44.714;37.756;2023-03-24T00:29:34;26.21;40.74
79020;DHT22;68422;44.714;37.756;2023-03-24T00:30:36;26.18;40.85
79020;DHT22;68422;44.714;37.756;2023-03-24T00:31:37;26.18;40.90
79020;DHT22;68422;44.714;37.756;2023-03-24T00:32:40;26.14;40.89
79020;DHT22;68422;44.714;37.756;2023-03-24T00:33:43;26.15;40.86
79020;DHT22;68422;44.714;37.756;2023-03-24T00:34:44;26.18;40.89
79020;DHT22;68422;44.714;37.756;2023-03-24T00:35:46;26.18;40.87
79020;DHT22;68422;44.714;37.756;2023-03-24T00:36:49;26.14;40.91
79020;DHT22;68422;44.714;37.756;2023-03-24T00:37:53;26.11;40.95
79020;DHT22;68422;44.714;37.756;2023-03-24T00:38:55;26.15;40.94
79020;DHT22;68422;44.714;37.756;2023-03-24T00:39:57;26.09;40.91
79020;DHT22;68422;44.714;37.756;2023-03-24T00:41:00;26.09;40.99
79020;DHT22;68422;44.714;37.756;2023-03-24T00:42:01;26.09;40.99
79020;DHT22;68422;44.714;37.756;2023-03-24T00:43:03;26.12;40.92
79020;DHT22;68422;44.714;37.756;2023-03-24T00:44:04;26.14;40.88
79020;DHT22;68422;44.714;37.756;2023-03-24T00:45:07;26.09;40.97
79020;DHT22;68422;44.714;37.756;2023-03-24T00:46:11;26.11;40.96
79020;DHT22;68422;44.714;37.756;2023-03-24T00:47:27;26.12;40.97
79020;DHT22;68422;44.714;37.756;2023-03-24T00:48:29;26.11;40.89
79020;DHT22;68422;44.714;37.756;2023-03-24T00:49:30;26.11;40.92
79020;DHT22;68422;44.714;37.756;2023-03-24T00:50:48;26.16;40.84
79020;DHT22;68422;44.714;37.756;2023-03-24T00:51:50;26.16;40.77
79020;DHT22;68422;44.714;37.756;2023-03-24T00:52:52;26.18;40.69
79020;DHT22;68422;44.714;37.756;2023-03-24T00:53:54;26.21;40.71
79020;DHT22;68422;44.714;37.756;2023-03-24T00:54:59;26.21;40.70
79020;DHT22;68422;44.714;37.756;2023-03-24T00:56:02;26.19;40.65
79020;DHT22;68422;44.714;37.756;2023-03-24T00:57:03;26.21;40.66
79020;DHT22;68422;44.714;37.756;2023-03-24T00:58:04;26.21;40.70
79020;DHT22;68422;44.714;37.756;2023-03-24T00:59:06;26.22;40.65
79020;DHT22;68422;44.714;37.756;2023-03-24T01:00:09;26.24;40.63
79020;DHT22;68422;44.714;37.756;2023-03-24T01:01:17;26.22;40.58
79020;DHT22;68422;44.714;37.756;2023-03-24T01:02:21;26.22;40.64
79020;DHT22;68422;44.714;37.756;2023-03-24T01:03:23;26.22;40.62
79020;DHT22;68422;44.714;37.756;2023-03-24T01:04:27;26.18;40.66
79020;DHT22;68422;44.714;37.756;2023-03-24T01:05:30;26.16;40.70
79020;DHT22;68422;44.714;37.756;2023-03-24T01:06:31;26.14;40.78
79020;DHT22;68422;44.714;37.756;2023-03-24T01:07:33;26.18;40.71
79020;DHT22;68422;44.714;37.756;2023-03-24T01:08:34;26.18;40.67
79020;DHT22;68422;44.714;37.756;2023-03-24T01:09:36;26.16;40.67
79020;DHT22;68422;44.714;37.756;2023-03-24T01:10:38;26.18;40.66
79020;DHT22;68422;44.714;37.756;2023-03-24T01:11:50;26.16;40.67
79020;DHT22;68422;44.714;37.756;2023-03-24T01:12:54;26.08;40.81
79020;DHT22;68422;44.714;37.756;2023-03-24T01:13:55;26.12;40.83
79020;DHT22;68422;44.714;37.756;2023-03-24T01:14:59;26.14;40.81
79020;DHT22;68422;44.714;37.756;2023-03-24T01:16:00;26.14;40.72
79020;DHT22;68422;44.714;37.756;2023-03-24T01:17:03;26.15;40.80
79020;DHT22;68422;44.714;37.756;2023-03-24T01:18:06;26.12;40.78
79020;DHT22;68422;44.714;37.756;2023-03-24T01:19:09;26.11;40.85
79020;DHT22;68422;44.714;37.756;2023-03-24T01:20:10;26.08;40.89
79020;DHT22;68422;44.714;37.756;2023-03-24T01:21:12;26.08;40.90
79020;DHT22;68422;44.714;37.756;2023-03-24T01:22:13;26.08;40.90
79020;DHT22;68422;44.714;37.756;2023-03-24T01:23:18;26.08;40.88
79020;DHT22;68422;44.714;37.756;2023-03-24T01:24:21;26.08;40.89
79020;DHT22;68422;44.714;37.756;2023-03-24T01:25:25;26.09;40.86
79020;DHT22;68422;44.714;37.756;2023-03-24T01:26:28;26.11;40.85
79020;DHT22;68422;44.714;37.756;2023-03-24T01:27:30;26.09;40.88
79020;DHT22;68422;44.714;37.756;2023-03-24T01:28:33;26.09;40.89
79020;DHT22;68422;44.714;37.756;2023-03-24T01:29:38;26.14;40.76
79020;DHT22;68422;44.714;37.756;2023-03-24T01:30:39;26.16;40.77
79020;DHT22;68422;44.714;37.756;2023-03-24T01:31:41;26.12;40.72
79020;DHT22;68422;44.714;37.756;2023-03-24T01:32:42;26.12;40.73
79020;DHT22;68422;44.714;37.756;2023-03-24T01:33:44;26.11;40.83
79020;DHT22;68422;44.714;37.756;2023-03-24T01:34:45;26.08;40.80
79020;DHT22;68422;44.714;37.756;2023-03-24T01:35:47;26.09;40.87
79020;DHT22;68422;44.714;37.756;2023-03-24T01:36:48;26.14;40.75
79020;DHT22;68422;44.714;37.756;2023-03-24T01:37:50;26.12;40.76
79020;DHT22;68422;44.714;37.756;2023-03-24T01:38:51;26.09;40.73
79020;DHT22;68422;44.714;37.756;2023-03-24T01:39:53;26.11;40.82
79020;DHT22;68422;44.714;37.756;2023-03-24T01:40:54;26.09;40.76
79020;DHT22;68422;44.714;37.756;2023-03-24T01:41:55;26.06;40.77
79020;DHT22;68422;44.714;37.756;2023-03-24T01:42:57;26.05;40.84
79020;DHT22;68422;44.714;37.756;2023-03-24T01:43:59;26.05;40.88
79020;DHT22;68422;44.714;37.756;2023-03-24T01:45:37;26.08;40.81
79020;DHT22;68422;44.714;37.756;2023-03-24T01:46:23;26.06;40.74
79020;DHT22;68422;44.714;37.756;2023-03-24T01:47:25;26.08;40.78
79020;DHT22;68422;44.714;37.756;2023-03-24T01:49:46;26.14;40.66
79020;DHT22;68422;44.714;37.756;2023-03-24T01:50:55;26.11;40.70
79020;DHT22;68422;44.714;37.756;2023-03-24T01:52:00;26.09;40.67
79020;DHT22;68422;44.714;37.756;2023-03-24T01:53:03;26.09;40.73
79020;DHT22;68422;44.714;37.756;2023-03-24T01:54:22;26.09;40.74
79020;DHT22;68422;44.714;37.756;2023-03-24T01:55:30;26.08;40.67
79020;DHT22;68422;44.714;37.756;2023-03-24T01:56:37;26.11;40.70
79020;DHT22;68422;44.714;37.756;2023-03-24T01:57:43;26.11;40.68
79020;DHT22;68422;44.714;37.756;2023-03-24T01:58:59;26.15;40.67
79020;DHT22;68422;44.714;37.756;2023-03-24T02:00:29;26.12;40.68
79020;DHT22;68422;44.714;37.756;2023-03-24T02:01:52;26.12;40.65
79020;DHT22;68422;44.714;37.756;2023-03-24T02:03:16;26.09;40.79
79020;DHT22;68422;44.714;37.756;2023-03-24T02:04:24;26.09;40.71
79020;DHT22;68422;44.714;37.756;2023-03-24T02:05:35;26.08;40.70
79020;DHT22;68422;44.714;37.756;2023-03-24T02:06:41;26.09;40.70
79020;DHT22;68422;44.714;37.756;2023-03-24T02:08:07;26.14;40.64
79020;DHT22;68422;44.714;37.756;2023-03-24T02:09:12;26.12;40.58
79020;DHT22;68422;44.714;37.756;2023-03-24T02:10:16;26.11;40.65
79020;DHT22;68422;44.714;37.756;2023-03-24T02:11:22;26.09;40.59
79020;DHT22;68422;44.714;37.756;2023-03-24T02:12:29;26.09;40.69
79020;DHT22;68422;44.714;37.756;2023-03-24T02:13:32;26.06;40.75
79020;DHT22;68422;44.714;37.756;2023-03-24T02:14:34;26.04;40.75
79020;DHT22;68422;44.714;37.756;2023-03-24T02:15:41;26.08;40.66
79020;DHT22;68422;44.714;37.756;2023-03-24T02:18:12;26.08;40.71
79020;DHT22;68422;44.714;37.756;2023-03-24T02:21:02;26.02;40.84
79020;DHT22;68422;44.714;37.756;2023-03-24T02:23:44;25.99;40.92
79020;DHT22;68422;44.714;37.756;2023-03-24T02:27:46;25.99;40.92
79020;DHT22;68422;44.714;37.756;2023-03-24T02:30:32;25.98;40.91
79020;DHT22;68422;44.714;37.756;2023-03-24T02:33:23;25.98;40.88
79020;DHT22;68422;44.714;37.756;2023-03-24T02:34:47;25.94;40.97
79020;DHT22;68422;44.714;37.756;2023-03-24T02:43:32;25.89;41.10
79020;DHT22;68422;44.714;37.756;2023-03-24T02:46:23;25.89;41.10
79020;DHT22;68422;44.714;37.756;2023-03-24T02:50:23;25.98;40.93
79020;DHT22;68422;44.714;37.756;2023-03-24T02:56:21;25.98;40.87
79020;DHT22;68422;44.714;37.756;2023-03-24T02:57:44;25.95;40.92
79020;DHT22;68422;44.714;37.756;2023-03-24T02:59:25;25.99;40.86
79020;DHT22;68422;44.714;37.756;2023-03-24T03:00:34;25.94;40.92
79020;DHT22;68422;44.714;37.756;2023-03-24T03:01:44;25.92;40.98
79020;DHT22;68422;44.714;37.756;2023-03-24T03:03:14;25.92;40.98
79020;DHT22;68422;44.714;37.756;2023-03-24T03:04:21;25.92;41.25
79020;DHT22;68422;44.714;37.756;2023-03-24T03:05:49;25.92;41.26
79020;DHT22;68422;44.714;37.756;2023-03-24T03:06:56;25.95;41.18
79020;DHT22;68422;44.714;37.756;2023-03-24T03:08:01;26.01;41.20
79020;DHT22;68422;44.714;37.756;2023-03-24T03:09:07;26.02;41.04
79020;DHT22;68422;44.714;37.756;2023-03-24T03:10:20;26.04;41.18
79020;DHT22;68422;44.714;37.756;2023-03-24T03:11:23;26.02;41.38
79020;DHT22;68422;44.714;37.756;2023-03-24T03:12:27;26.01;41.41
79020;DHT22;68422;44.714;37.756;2023-03-24T03:13:34;26.04;41.36
79020;DHT22;68422;44.714;37.756;2023-03-24T03:14:51;26.08;41.35
79020;DHT22;68422;44.714;37.756;2023-03-24T03:15:59;26.11;41.46
79020;DHT22;68422;44.714;37.756;2023-03-24T03:17:10;26.11;41.22
79020;DHT22;68422;44.714;37.756;2023-03-24T03:19:57;26.06;41.55
79020;DHT22;68422;44.714;37.756;2023-03-24T03:21:06;26.06;41.42
79020;DHT22;68422;44.714;37.756;2023-03-24T03:22:18;26.06;41.59
79020;DHT22;68422;44.714;37.756;2023-03-24T03:23:40;26.09;41.59
79020;DHT22;68422;44.714;37.756;2023-03-24T03:24:46;26.11;41.31
79020;DHT22;68422;44.714;37.756;2023-03-24T03:25:55;26.15;41.35
79020;DHT22;68422;44.714;37.756;2023-03-24T03:27:02;26.16;41.31
79020;DHT22;68422;44.714;37.756;2023-03-24T03:28:06;26.14;41.24
79020;DHT22;68422;44.714;37.756;2023-03-24T03:29:14;26.15;41.33
79020;DHT22;68422;44.714;37.756;2023-03-24T03:30:42;26.19;41.34
79020;DHT22;68422;44.714;37.756;2023-03-24T03:31:52;26.18;41.22
79020;DHT22;68422;44.714;37.756;2023-03-24T03:33:04;26.21;41.26
79020;DHT22;68422;44.714;37.756;2023-03-24T03:34:30;26.21;41.27
79020;DHT22;68422;44.714;37.756;2023-03-24T03:35:38;26.18;41.10
79020;DHT22;68422;44.714;37.756;2023-03-24T03:37:00;26.21;41.21
79020;DHT22;68422;44.714;37.756;2023-03-24T03:38:11;26.21;41.04
79020;DHT22;68422;44.714;37.756;2023-03-24T03:39:21;26.22;41.06
79020;DHT22;68422;44.714;37.756;2023-03-24T03:40:51;26.25;40.88
79020;DHT22;68422;44.714;37.756;2023-03-24T03:41:54;26.22;40.96
79020;DHT22;68422;44.714;37.756;2023-03-24T03:42:56;26.25;40.92
79020;DHT22;68422;44.714;37.756;2023-03-24T03:43:59;26.22;40.88
79020;DHT22;68422;44.714;37.756;2023-03-24T03:45:01;26.19;41.04
79020;DHT22;68422;44.714;37.756;2023-03-24T03:46:03;26.18;41.04
79020;DHT22;68422;44.714;37.756;2023-03-24T03:47:10;26.15;41.05
79020;DHT22;68422;44.714;37.756;2023-03-24T03:48:17;26.14;41.33
79020;DHT22;68422;44.714;37.756;2023-03-24T03:49:19;26.18;41.25
79020;DHT22;68422;44.714;37.756;2023-03-24T03:50:21;26.18;41.54
79020;DHT22;68422;44.714;37.756;2023-03-24T03:51:22;26.19;41.44
79020;DHT22;68422;44.714;37.756;2023-03-24T03:52:28;26.19;41.40
79020;DHT22;68422;44.714;37.756;2023-03-24T03:53:57;26.14;41.45
79020;DHT22;68422;44.714;37.756;2023-03-24T03:54:58;26.08;41.70
79020;DHT22;68422;44.714;37.756;2023-03-24T03:56:00;26.11;41.84
79020;DHT22;68422;44.714;37.756;2023-03-24T03:57:04;26.16;41.42
79020;DHT22;68422;44.714;37.756;2023-03-24T03:58:12;26.15;41.57
79020;DHT22;68422;44.714;37.756;2023-03-24T03:59:30;26.15;41.57
79020;DHT22;68422;44.714;37.756;2023-03-24T04:00:35;26.14;41.65
79020;DHT22;68422;44.714;37.756;2023-03-24T04:01:56;26.18;41.35
79020;DHT22;68422;44.714;37.756;2023-03-24T04:07:35;26.25;41.19
79020;DHT22;68422;44.714;37.756;2023-03-24T04:10:05;26.16;41.31
79020;DHT22;68422;44.714;37.756;2023-03-24T04:13:53;25.98;42.25
79020;DHT22;68422;44.714;37.756;2023-03-24T04:15:24;25.97;41.96
79020;DHT22;68422;44.714;37.756;2023-03-24T04:25:29;26.14;41.37
79020;DHT22;68422;44.714;37.756;2023-03-24T04:27:42;26.12;41.38
79020;DHT22;68422;44.714;37.756;2023-03-24T04:28:37;26.09;41.39
79020;DHT22;68422;44.714;37.756;2023-03-24T04:31:24;26.14;41.38
79020;DHT22;68422;44.714;37.756;2023-03-24T04:33:50;26.22;41.15
79020;DHT22;68422;44.714;37.756;2023-03-24T04:34:56;26.24;41.05
79020;DHT22;68422;44.714;37.756;2023-03-24T04:36:30;26.25;41.02
79020;DHT22;68422;44.714;37.756;2023-03-24T04:38:06;26.24;40.98
79020;DHT22;68422;44.714;37.756;2023-03-24T04:39:16;26.26;41.15
79020;DHT22;68422;44.714;37.756;2023-03-24T04:40:24;26.25;41.23
79020;DHT22;68422;44.714;37.756;2023-03-24T04:41:28;26.26;41.22
79020;DHT22;68422;44.714;37.756;2023-03-24T04:42:49;26.26;41.03
79020;DHT22;68422;44.714;37.756;2023-03-24T04:43:56;26.26;41.00
79020;DHT22;68422;44.714;37.756;2023-03-24T04:44:59;26.29;41.12
79020;DHT22;68422;44.714;37.756;2023-03-24T04:46:17;26.32;40.94
79020;DHT22;68422;44.714;37.756;2023-03-24T04:47:37;26.35;40.99
79020;DHT22;68422;44.714;37.756;2023-03-24T04:49:03;26.31;41.03
79020;DHT22;68422;44.714;37.756;2023-03-24T04:50:11;26.31;40.89
79020;DHT22;68422;44.714;37.756;2023-03-24T04:51:15;26.33;40.92
79020;DHT22;68422;44.714;37.756;2023-03-24T04:52:34;26.35;40.82
79020;DHT22;68422;44.714;37.756;2023-03-24T04:53:36;26.33;40.96
79020;DHT22;68422;44.714;37.756;2023-03-24T04:54:38;26.36;40.92
79020;DHT22;68422;44.714;37.756;2023-03-24T04:57:35;26.29;41.03
79020;DHT22;68422;44.714;37.756;2023-03-24T04:58:39;26.31;40.90
79020;DHT22;68422;44.714;37.756;2023-03-24T04:59:41;26.29;41.00
79020;DHT22;68422;44.714;37.756;2023-03-24T05:00:44;26.29;41.02
79020;DHT22;68422;44.714;37.756;2023-03-24T05:01:47;26.29;40.94
79020;DHT22;68422;44.714;37.756;2023-03-24T05:03:11;26.28;40.88
79020;DHT22;68422;44.714;37.756;2023-03-24T05:04:22;26.33;41.08
79020;DHT22;68422;44.714;37.756;2023-03-24T05:05:23;26.32;40.97
79020;DHT22;68422;44.714;37.756;2023-03-24T05:06:25;26.35;40.86
79020;DHT22;68422;44.714;37.756;2023-03-24T05:07:26;26.33;40.95
79020;DHT22;68422;44.714;37.756;2023-03-24T05:08:33;26.35;40.87
79020;DHT22;68422;44.714;37.756;2023-03-24T05:09:35;26.36;40.89
79020;DHT22;68422;44.714;37.756;2023-03-24T05:10:37;26.35;40.79
79020;DHT22;68422;44.714;37.756;2023-03-24T05:11:40;26.39;40.71
79020;DHT22;68422;44.714;37.756;2023-03-24T05:12:42;26.35;40.98
79020;DHT22;68422;44.714;37.756;2023-03-24T05:14:02;26.35;40.82
79020;DHT22;68422;44.714;37.756;2023-03-24T05:15:04;26.36;40.82
79020;DHT22;68422;44.714;37.756;2023-03-24T05:16:07;26.36;40.69
79020;DHT22;68422;44.714;37.756;2023-03-24T05:17:13;26.38;40.69
79020;DHT22;68422;44.714;37.756;2023-03-24T05:18:14;26.33;40.86
79020;DHT22;68422;44.714;37.756;2023-03-24T05:19:16;26.38;40.68
79020;DHT22;68422;44.714;37.756;2023-03-24T05:20:18;26.39;40.59
79020;DHT22;68422;44.714;37.756;2023-03-24T05:21:23;26.40;40.69
79020;DHT22;68422;44.714;37.756;2023-03-24T05:22:24;26.39;40.71
79020;DHT22;68422;44.714;37.756;2023-03-24T05:23:26;26.38;40.59
79020;DHT22;68422;44.714;37.756;2023-03-24T05:24:28;26.38;40.60
79020;DHT22;68422;44.714;37.756;2023-03-24T05:25:29;26.43;40.61
79020;DHT22;68422;44.714;37.756;2023-03-24T05:26:31;26.42;40.54
79020;DHT22;68422;44.714;37.756;2023-03-24T05:27:40;26.39;40.56
79020;DHT22;68422;44.714;37.756;2023-03-24T05:28:52;26.42;40.56
79020;DHT22;68422;44.714;37.756;2023-03-24T05:29:54;26.45;40.43
79020;DHT22;68422;44.714;37.756;2023-03-24T05:30:59;26.43;40.52
79020;DHT22;68422;44.714;37.756;2023-03-24T05:32:30;26.39;40.60
79020;DHT22;68422;44.714;37.756;2023-03-24T05:33:31;26.36;40.64
79020;DHT22;68422;44.714;37.756;2023-03-24T05:34:34;26.35;40.69
79020;DHT22;68422;44.714;37.756;2023-03-24T05:35:43;26.39;40.55
79020;DHT22;68422;44.714;37.756;2023-03-24T05:36:44;26.39;40.56
79020;DHT22;68422;44.714;37.756;2023-03-24T05:37:48;26.36;40.64
79020;DHT22;68422;44.714;37.756;2023-03-24T05:38:49;26.40;40.54
79020;DHT22;68422;44.714;37.756;2023-03-24T05:39:51;26.45;40.46
79020;DHT22;68422;44.714;37.756;2023-03-24T05:41:18;26.43;40.45
79020;DHT22;68422;44.714;37.756;2023-03-24T05:42:20;26.43;40.55
79020;DHT22;68422;44.714;37.756;2023-03-24T05:43:26;26.40;40.57
79020;DHT22;68422;44.714;37.756;2023-03-24T05:44:38;26.38;40.51
79020;DHT22;68422;44.714;37.756;2023-03-24T05:45:47;26.39;40.45
79020;DHT22;68422;44.714;37.756;2023-03-24T05:46:58;26.38;40.60
79020;DHT22;68422;44.714;37.756;2023-03-24T05:48:01;26.42;40.48
79020;DHT22;68422;44.714;37.756;2023-03-24T05:49:18;26.42;40.60
79020;DHT22;68422;44.714;37.756;2023-03-24T05:50:20;26.42;40.59
79020;DHT22;68422;44.714;37.756;2023-03-24T05:51:21;26.42;40.43
79020;DHT22;68422;44.714;37.756;2023-03-24T05:52:32;26.40;40.49
79020;DHT22;68422;44.714;37.756;2023-03-24T05:53:50;26.40;40.57
79020;DHT22;68422;44.714;37.756;2023-03-24T05:54:55;26.36;40.56
79020;DHT22;68422;44.714;37.756;2023-03-24T05:56:00;26.38;40.50
79020;DHT22;68422;44.714;37.756;2023-03-24T05:57:34;26.40;40.64
79020;DHT22;68422;44.714;37.756;2023-03-24T05:58:54;26.36;40.49
79020;DHT22;68422;44.714;37.756;2023-03-24T05:59:59;26.39;40.58
79020;DHT22;68422;44.714;37.756;2023-03-24T06:01:15;26.38;40.55
79020;DHT22;68422;44.714;37.756;2023-03-24T06:02:18;26.39;40.67
79020;DHT22;68422;44.714;37.756;2023-03-24T06:03:30;26.36;40.50
79020;DHT22;68422;44.714;37.756;2023-03-24T06:04:39;26.38;40.64
79020;DHT22;68422;44.714;37.756;2023-03-24T06:05:49;26.36;40.55
79020;DHT22;68422;44.714;37.756;2023-03-24T06:06:51;26.36;40.54
79020;DHT22;68422;44.714;37.756;2023-03-24T06:07:59;26.42;40.48
79020;DHT22;68422;44.714;37.756;2023-03-24T06:09:03;26.40;40.44
79020;DHT22;68422;44.714;37.756;2023-03-24T06:10:06;26.40;40.49
79020;DHT22;68422;44.714;37.756;2023-03-24T06:11:17;26.40;40.45
79020;DHT22;68422;44.714;37.756;2023-03-24T06:12:26;26.42;40.51
79020;DHT22;68422;44.714;37.756;2023-03-24T06:13:35;26.38;40.49
79020;DHT22;68422;44.714;37.756;2023-03-24T06:14:37;26.38;40.45
79020;DHT22;68422;44.714;37.756;2023-03-24T06:15:47;26.39;40.44
79020;DHT22;68422;44.714;37.756;2023-03-24T06:17:08;26.38;40.49
79020;DHT22;68422;44.714;37.756;2023-03-24T06:18:15;26.40;40.43
79020;DHT22;68422;44.714;37.756;2023-03-24T06:19:17;26.39;40.47
79020;DHT22;68422;44.714;37.756;2023-03-24T06:20:34;26.42;40.33
79020;DHT22;68422;44.714;37.756;2023-03-24T06:21:40;26.45;40.30
79020;DHT22;68422;44.714;37.756;2023-03-24T06:22:44;26.45;40.32
79020;DHT22;68422;44.714;37.756;2023-03-24T06:23:48;26.43;40.25
79020;DHT22;68422;44.714;37.756;2023-03-24T06:24:53;26.45;40.40
79020;DHT22;68422;44.714;37.756;2023-03-24T06:25:56;26.43;40.38
79020;DHT22;68422;44.714;37.756;2023-03-24T06:27:06;26.45;40.36
79020;DHT22;68422;44.714;37.756;2023-03-24T06:28:10;26.45;40.38
79020;DHT22;68422;44.714;37.756;2023-03-24T06:29:12;26.45;40.43
79020;DHT22;68422;44.714;37.756;2023-03-24T06:30:17;26.46;40.33
79020;DHT22;68422;44.714;37.756;2023-03-24T06:31:20;26.45;40.19
79020;DHT22;68422;44.714;37.756;2023-03-24T06:32:25;26.45;40.27
79020;DHT22;68422;44.714;37.756;2023-03-24T06:33:26;26.42;40.34
79020;DHT22;68422;44.714;37.756;2023-03-24T06:34:28;26.42;40.36
79020;DHT22;68422;44.714;37.756;2023-03-24T06:35:52;26.43;40.28
79020;DHT22;68422;44.714;37.756;2023-03-24T06:36:54;26.40;40.43
79020;DHT22;68422;44.714;37.756;2023-03-24T06:37:56;26.42;40.42
79020;DHT22;68422;44.714;37.756;2023-03-24T06:38:57;26.43;40.25
79020;DHT22;68422;44.714;37.756;2023-03-24T06:40:00;26.42;40.34
79020;DHT22;68422;44.714;37.756;2023-03-24T06:41:05;26.42;40.40
79020;DHT22;68422;44.714;37.756;2023-03-24T06:42:06;26.40;40.31
79020;DHT22;68422;44.714;37.756;2023-03-24T06:43:08;26.40;40.38
79020;DHT22;68422;44.714;37.756;2023-03-24T06:44:11;26.38;40.39
79020;DHT22;68422;44.714;37.756;2023-03-24T06:45:14;26.39;40.46
79020;DHT22;68422;44.714;37.756;2023-03-24T06:46:16;26.33;40.64
79020;DHT22;68422;44.714;37.756;2023-03-24T06:47:19;26.32;40.56
79020;DHT22;68422;44.714;37.756;2023-03-24T06:48:21;26.35;40.51
79020;DHT22;68422;44.714;37.756;2023-03-24T06:49:24;26.35;40.40
79020;DHT22;68422;44.714;37.756;2023-03-24T06:50:25;26.35;40.49
79020;DHT22;68422;44.714;37.756;2023-03-24T06:51:33;26.35;40.40
79020;DHT22;68422;44.714;37.756;2023-03-24T06:52:34;26.39;40.50
79020;DHT22;68422;44.714;37.756;2023-03-24T06:53:36;26.42;40.33
79020;DHT22;68422;44.714;37.756;2023-03-24T06:54:38;26.42;40.34
79020;DHT22;68422;44.714;37.756;2023-03-24T06:55:40;26.43;40.31
79020;DHT22;68422;44.714;37.756;2023-03-24T06:56:43;26.43;40.38
79020;DHT22;68422;44.714;37.756;2023-03-24T06:57:45;26.43;40.33
79020;DHT22;68422;44.714;37.756;2023-03-24T06:59:11;26.40;40.29
79020;DHT22;68422;44.714;37.756;2023-03-24T07:00:12;26.39;40.38
79020;DHT22;68422;44.714;37.756;2023-03-24T07:01:26;26.42;40.35
79020;DHT22;68422;44.714;37.756;2023-03-24T07:02:31;26.39;40.30
79020;DHT22;68422;44.714;37.756;2023-03-24T07:03:36;26.42;40.30
79020;DHT22;68422;44.714;37.756;2023-03-24T07:04:47;26.38;40.34
79020;DHT22;68422;44.714;37.756;2023-03-24T07:05:59;26.36;40.35
79020;DHT22;68422;44.714;37.756;2023-03-24T07:07:01;26.36;40.45
79020;DHT22;68422;44.714;37.756;2023-03-24T07:08:04;26.39;40.30
79020;DHT22;68422;44.714;37.756;2023-03-24T07:09:10;26.40;40.24
79020;DHT22;68422;44.714;37.756;2023-03-24T07:10:12;26.42;40.30
79020;DHT22;68422;44.714;37.756;2023-03-24T07:11:14;26.43;40.27
79020;DHT22;68422;44.714;37.756;2023-03-24T07:12:24;26.40;40.34
79020;DHT22;68422;44.714;37.756;2023-03-24T07:13:25;26.39;40.30
79020;DHT22;68422;44.714;37.756;2023-03-24T07:14:33;26.39;40.32
79020;DHT22;68422;44.714;37.756;2023-03-24T07:15:35;26.39;40.29
79020;DHT22;68422;44.714;37.756;2023-03-24T07:16:37;26.40;40.28
79020;DHT22;68422;44.714;37.756;2023-03-24T07:17:57;26.40;40.22
79020;DHT22;68422;44.714;37.756;2023-03-24T07:19:28;26.39;40.25
79020;DHT22;68422;44.714;37.756;2023-03-24T07:21:07;26.36;40.30
79020;DHT22;68422;44.714;37.756;2023-03-24T07:22:10;26.33;40.32
79020;DHT22;68422;44.714;37.756;2023-03-24T07:23:32;26.38;40.33
79020;DHT22;68422;44.714;37.756;2023-03-24T07:24:54;26.38;40.32
79020;DHT22;68422;44.714;37.756;2023-03-24T07:26:20;26.39;40.31
79020;DHT22;68422;44.714;37.756;2023-03-24T07:27:21;26.35;40.38
79020;DHT22;68422;44.714;37.756;2023-03-24T07:28:24;26.31;40.48
79020;DHT22;68422;44.714;37.756;2023-03-24T07:29:25;26.33;40.37
79020;DHT22;68422;44.714;37.756;2023-03-24T07:30:56;26.35;40.36
79020;DHT22;68422;44.714;37.756;2023-03-24T07:31:59;26.38;40.32
79020;DHT22;68422;44.714;37.756;2023-03-24T07:33:02;26.35;40.29
79020;DHT22;68422;44.714;37.756;2023-03-24T07:34:04;26.39;40.42
79020;DHT22;68422;44.714;37.756;2023-03-24T07:35:10;26.36;40.31
79020;DHT22;68422;44.714;37.756;2023-03-24T07:36:11;26.36;40.23
79020;DHT22;68422;44.714;37.756;2023-03-24T07:37:14;26.40;40.41
79020;DHT22;68422;44.714;37.756;2023-03-24T07:38:16;26.33;40.46
79020;DHT22;68422;44.714;37.756;2023-03-24T07:39:18;26.31;40.49
79020;DHT22;68422;44.714;37.756;2023-03-24T07:40:20;26.32;40.38
79020;DHT22;68422;44.714;37.756;2023-03-24T07:41:22;26.35;40.32
79020;DHT22;68422;44.714;37.756;2023-03-24T07:42:30;26.33;40.42
79020;DHT22;68422;44.714;37.756;2023-03-24T07:44:03;26.31;40.39
79020;DHT22;68422;44.714;37.756;2023-03-24T07:45:09;26.32;40.50
79020;DHT22;68422;44.714;37.756;2023-03-24T07:46:12;26.35;40.38
79020;DHT22;68422;44.714;37.756;2023-03-24T07:47:13;26.35;40.38
79020;DHT22;68422;44.714;37.756;2023-03-24T07:48:15;26.38;40.31
79020;DHT22;68422;44.714;37.756;2023-03-24T07:49:16;26.40;40.39
79020;DHT22;68422;44.714;37.756;2023-03-24T07:50:20;26.39;40.27